Time;durP1;ratioP1;P1;durP2;ratioP2;P2;SDS_P1;SDS_P2;PMS_P1;PMS_P2;Temp;Humidity;BMP_temperature;BMP_pressure;BME280_temperature;BME280_humidity;BME280_pressure;Samples;Min_cycle;Max_cycle;Signal;HPM_P1;HPM_P2
2022/03/15 00:01:35;;;;;;;;;8.75;6.50;;;;;12.82;48.89;102145.97;6310044;22;46010;-81
2022/03/15 00:04:01;;;;;;;;;9.00;7.50;;;;;12.76;48.90;102147.66;6339556;22;45375;-81
2022/03/15 00:06:26;;;;;;;;;11.00;8.50;;;;;12.78;48.97;102145.94;6310565;22;45540;-82
2022/03/15 00:08:52;;;;;;;;;8.25;8.00;;;;;12.68;48.99;102124.69;6310764;22;45718;-81
2022/03/15 00:11:17;;;;;;;;;8.75;6.00;;;;;12.66;48.71;102124.66;6310783;22;46757;-81
2022/03/15 00:13:43;;;;;;;;;9.25;9.25;;;;;12.77;49.19;102138.84;6340628;22;45354;-79
2022/03/15 00:16:10;;;;;;;;;11.25;10.25;;;;;12.70;48.87;102115.91;6310396;22;45393;-81
2022/03/15 00:18:37;;;;;;;;;12.25;10.00;;;;;12.71;49.12;102125.59;6339738;22;45279;-81
2022/03/15 00:21:04;;;;;;;;;11.00;11.00;;;;;12.73;49.10;102134.44;6311729;22;47198;-80
2022/03/15 00:23:31;;;;;;;;;11.75;9.75;;;;;12.61;49.38;102107.88;6311179;22;45433;-79
2022/03/15 00:25:59;;;;;;;;;9.00;7.00;;;;;12.64;49.08;102122.88;6340841;22;45337;-80
2022/03/15 00:28:25;;;;;;;;;11.00;10.25;;;;;12.63;49.39;102123.75;6312419;22;45409;-80
2022/03/15 00:30:52;;;;;;;;;15.00;10.50;;;;;12.57;49.54;102117.53;6340284;22;45301;-80
2022/03/15 00:33:18;;;;;;;;;12.00;12.00;;;;;12.66;49.41;102134.34;6312722;22;45208;-80
2022/03/15 00:35:44;;;;;;;;;11.75;10.25;;;;;12.63;49.67;102124.63;6310780;22;45455;-80
2022/03/15 00:38:10;;;;;;;;;13.75;11.75;;;;;12.63;49.55;102121.13;6313404;22;45457;-80
2022/03/15 00:40:36;;;;;;;;;9.50;8.50;;;;;12.54;49.67;102103.44;6313802;22;46199;-79
2022/03/15 00:43:01;;;;;;;;;13.75;9.25;;;;;12.49;49.44;102103.38;6343667;22;45297;-80
2022/03/15 00:45:28;;;;;;;;;8.00;7.25;;;;;12.52;49.57;102113.97;6345111;22;45292;-80
2022/03/15 00:47:55;;;;;;;;;11.75;10.25;;;;;12.57;49.54;102121.94;6342581;22;45271;-80
2022/03/15 00:50:22;;;;;;;;;11.75;10.75;;;;;12.56;49.39;102117.50;6312864;22;47000;-79
2022/03/15 00:52:52;;;;;;;;;11.25;11.25;;;;;12.62;49.91;102128.16;6313476;22;45822;-81
2022/03/15 00:55:19;;;;;;;;;8.00;8.00;;;;;12.52;49.63;102107.78;6313113;22;45725;-82
2022/03/15 00:57:45;;;;;;;;;11.00;10.00;;;;;12.58;50.03;102111.38;6311764;22;45300;-82
2022/03/15 01:00:12;;;;;;;;;8.25;6.50;;;;;12.57;49.94;102104.31;6311859;22;47121;-82
2022/03/15 01:02:41;;;;;;;;;14.75;10.75;;;;;12.65;49.75;102112.34;6312651;22;45562;-82
2022/03/15 01:05:07;;;;;;;;;11.00;9.00;;;;;12.58;49.80;102100.81;6312446;22;45440;-83
2022/03/15 01:07:33;;;;;;;;;11.00;9.50;;;;;12.65;49.81;102106.16;6312509;22;45612;-82
2022/03/15 01:09:58;;;;;;;;;10.75;10.00;;;;;12.55;49.99;102095.50;6313436;22;47836;-82
2022/03/15 01:12:24;;;;;;;;;9.25;8.75;;;;;12.63;50.09;102102.63;6313089;22;45273;-83
2022/03/15 01:14:56;;;;;;;;;9.50;9.50;;;;;12.59;50.16;102096.44;6312521;22;45252;-82
2022/03/15 01:17:22;;;;;;;;;8.75;8.75;;;;;12.51;50.10;102080.50;6313046;22;46135;-82
2022/03/15 01:19:48;;;;;;;;;12.75;11.25;;;;;12.56;50.21;102092.00;6342402;22;46155;-83
2022/03/15 01:22:16;;;;;;;;;9.75;9.75;;;;;12.47;50.37;102069.88;6314507;22;45183;-83
2022/03/15 01:24:42;;;;;;;;;13.00;11.00;;;;;12.56;50.58;102089.34;6314893;22;45176;-83
2022/03/15 01:27:07;;;;;;;;;13.25;13.25;;;;;12.45;50.42;102071.63;6315471;22;45613;-84
2022/03/15 01:29:33;;;;;;;;;13.75;11.50;;;;;12.43;50.32;102068.06;6316242;22;46019;-83
2022/03/15 01:32:06;;;;;;;;;12.25;11.50;;;;;12.55;50.50;102084.06;6316289;22;45361;-83
2022/03/15 01:34:32;;;;;;;;;10.75;10.00;;;;;12.47;50.50;102070.75;6315771;22;45275;-83
2022/03/15 01:36:58;;;;;;;;;11.25;10.00;;;;;12.45;50.52;102053.13;6315988;22;45264;-83
2022/03/15 01:39:24;;;;;;;;;8.00;8.00;;;;;12.55;50.24;102068.19;6318583;22;47582;-83
2022/03/15 01:41:50;;;;;;;;;11.50;11.25;;;;;12.52;50.48;102063.78;6318520;22;45373;-81
2022/03/15 01:44:22;;;;;;;;;9.50;9.00;;;;;12.46;50.56;102047.88;6316253;22;45380;-83
2022/03/15 01:46:50;;;;;;;;;10.50;10.25;;;;;12.52;50.53;102049.69;6314984;22;45086;-82
2022/03/15 01:49:16;;;;;;;;;10.75;9.50;;;;;12.43;50.67;102036.38;6343334;22;45324;-82
2022/03/15 01:51:43;;;;;;;;;9.25;8.25;;;;;12.56;50.85;102055.03;6314814;22;45241;-83
2022/03/15 01:54:12;;;;;;;;;10.50;10.00;;;;;12.56;50.64;102051.47;6315174;22;45217;-82
2022/03/15 01:56:43;;;;;;;;;15.00;10.25;;;;;12.45;50.72;102035.50;6343322;22;45345;-83
2022/03/15 01:59:14;;;;;;;;;11.00;9.00;;;;;12.55;50.69;102039.13;6314871;22;47631;-83
2022/03/15 02:01:41;;;;;;;;;14.25;12.75;;;;;12.51;51.05;102037.31;6344252;22;45488;-82
2022/03/15 02:04:11;;;;;;;;;11.50;10.00;;;;;12.49;51.01;102045.25;6316101;22;45208;-83
2022/03/15 02:06:44;;;;;;;;;9.00;7.00;;;;;12.50;50.96;102041.72;6343496;22;45184;-83
2022/03/15 02:09:22;;;;;;;;;9.75;9.25;;;;;12.46;51.27;102025.88;6314836;22;47081;-83
2022/03/15 02:11:55;;;;;;;;;14.75;12.00;;;;;12.44;51.21;102023.19;6314761;22;45803;-82
2022/03/15 02:14:25;;;;;;;;;13.00;10.25;;;;;12.45;51.20;102024.06;6343853;22;45171;-83
2022/03/15 02:16:56;;;;;;;;;11.50;11.50;;;;;12.44;51.50;102020.56;6314954;22;45459;-82
2022/03/15 02:19:22;;;;;;;;;11.00;8.50;;;;;12.35;51.35;102009.91;6314532;22;45590;-83
2022/03/15 02:21:51;;;;;;;;;8.00;7.75;;;;;12.37;51.10;102005.50;6314588;22;45169;-83
2022/03/15 02:24:19;;;;;;;;;7.50;7.50;;;;;12.43;51.67;102013.50;6315381;22;45330;-83
2022/03/15 02:26:49;;;;;;;;;6.00;5.75;;;;;12.49;51.84;102013.56;6315516;22;45515;-83
2022/03/15 02:29:16;;;;;;;;;5.50;5.00;;;;;12.52;51.77;102010.06;6315291;22;46111;-83
2022/03/15 02:31:44;;;;;;;;;6.25;4.75;;;;;12.52;51.90;102003.00;6314765;22;45350;-82
2022/03/15 02:34:10;;;;;;;;;9.00;8.75;;;;;12.44;52.10;101983.56;6342822;22;45065;-82
2022/03/15 02:36:38;;;;;;;;;6.50;6.50;;;;;12.56;51.94;101998.63;6314713;22;45221;-82
2022/03/15 02:39:03;;;;;;;;;6.00;5.75;;;;;12.46;52.34;101978.31;6343577;22;45400;-82
2022/03/15 02:41:31;;;;;;;;;5.75;4.25;;;;;12.51;52.29;101979.22;6341596;22;45578;-83
2022/03/15 02:43:57;;;;;;;;;12.50;8.50;;;;;12.50;52.72;101975.69;6315583;22;45417;-82
2022/03/15 02:46:42;;;;;;;;;;;;;;;;;;;;;
2022/03/15 02:49:09;;;;;;;;;9.50;6.50;;;;;12.54;52.91;101964.28;6338495;22;73970;-82
2022/03/15 02:51:35;;;;;;;;;7.00;7.00;;;;;12.61;53.17;101972.25;6314793;22;45494;-83
2022/03/15 02:54:04;;;;;;;;;7.25;6.00;;;;;12.65;53.04;101974.94;6317287;22;45400;-83
2022/03/15 02:56:36;;;;;;;;;7.25;6.25;;;;;12.68;53.23;101984.66;6316036;22;45263;-81
2022/03/15 02:59:04;;;;;;;;;8.50;7.00;;;;;12.68;53.41;101977.59;6344060;22;45641;-82
2022/03/15 03:01:30;;;;;;;;;6.00;6.00;;;;;12.64;53.24;101965.22;6343858;22;45312;-82
2022/03/15 03:03:59;;;;;;;;;9.00;7.00;;;;;12.67;53.94;101962.63;6344541;22;45239;-83
2022/03/15 03:06:24;;;;;;;;;6.25;6.25;;;;;12.57;53.83;101944.94;6315317;22;45493;-83
2022/03/15 03:08:50;;;;;;;;;7.00;5.00;;;;;12.57;54.30;101948.47;6314690;22;47298;-82
2022/03/15 03:11:30;;;;;;;;;10.00;8.75;;;;;12.64;54.44;101951.13;6315320;22;45271;-82
2022/03/15 03:14:00;;;;;;;;;8.50;8.00;;;;;12.58;54.40;101941.41;6343918;22;45391;-83
2022/03/15 03:16:31;;;;;;;;;7.00;7.00;;;;;12.70;54.75;101964.41;6314374;22;45438;-83
2022/03/15 03:18:59;;;;;;;;;9.25;8.00;;;;;12.70;54.74;101954.72;6314731;22;47133;-83
2022/03/15 03:21:30;;;;;;;;;11.50;10.00;;;;;12.64;54.87;101936.16;6314652;22;45260;-83
2022/03/15 03:23:56;;;;;;;;;7.75;7.75;;;;;12.64;55.48;101945.84;6343403;22;45388;-83
2022/03/15 03:26:24;;;;;;;;;12.75;9.75;;;;;12.67;55.76;101951.16;6314339;22;45362;-82
2022/03/15 03:28:51;;;;;;;;;10.00;7.75;;;;;12.52;55.76;101938.75;6314160;22;47544;-82
2022/03/15 03:31:17;;;;;;;;;9.25;8.75;;;;;12.50;56.37;101949.28;6313949;22;45268;-82
2022/03/15 03:33:43;;;;;;;;;11.25;10.50;;;;;12.51;56.87;101953.72;6314419;22;45173;-81
2022/03/15 03:36:09;;;;;;;;;11.00;10.00;;;;;12.51;56.87;101956.34;6342257;22;45430;-82
2022/03/15 03:38:36;;;;;;;;;12.00;10.00;;;;;12.53;57.10;101951.94;6341784;22;46017;-82
2022/03/15 03:41:03;;;;;;;;;9.25;9.25;;;;;12.46;56.94;101938.69;6313735;22;45293;-82
2022/03/15 03:43:29;;;;;;;;;10.50;9.00;;;;;12.46;57.37;101943.97;6313195;22;45311;-82
2022/03/15 03:45:55;;;;;;;;;8.75;8.75;;;;;12.55;57.29;101963.41;6313647;22;45272;-81
2022/03/15 03:48:20;;;;;;;;;13.00;11.00;;;;;12.50;57.65;101949.28;6342221;22;45290;-82
2022/03/15 03:50:47;;;;;;;;;8.25;8.25;;;;;12.55;57.79;101954.59;6341481;22;45455;-81
2022/03/15 03:53:14;;;;;;;;;11.00;10.50;;;;;12.56;57.90;101954.63;6340068;22;45294;-80
2022/03/15 03:55:40;;;;;;;;;10.25;8.25;;;;;12.52;57.95;101941.38;6313194;22;45411;-82
2022/03/15 03:58:08;;;;;;;;;8.50;8.25;;;;;12.57;58.19;101944.94;6341576;22;45368;-82
2022/03/15 04:00:35;;;;;;;;;9.25;8.50;;;;;12.53;58.09;101937.84;6313583;22;45442;-82
2022/03/15 04:03:00;;;;;;;;;12.75;12.75;;;;;12.54;57.71;101929.94;6314171;22;45153;-82
2022/03/15 04:05:30;;;;;;;;;10.25;9.50;;;;;12.61;58.70;101952.00;6313380;22;45199;-81
2022/03/15 04:08:02;;;;;;;;;9.25;9.00;;;;;12.60;58.81;101942.31;6342179;22;45353;-82
2022/03/15 04:10:30;;;;;;;;;11.00;8.25;;;;;12.57;59.02;101943.19;6313680;22;45188;-81
2022/03/15 04:12:56;;;;;;;;;9.75;9.75;;;;;12.53;59.30;101935.22;6313672;22;45334;-82
2022/03/15 04:15:23;;;;;;;;;11.00;11.00;;;;;12.55;59.69;101937.00;6313777;22;45568;-82
2022/03/15 04:17:49;;;;;;;;;7.75;7.75;;;;;12.60;59.81;101949.38;6342304;22;45223;-82
2022/03/15 04:20:16;;;;;;;;;10.00;10.00;;;;;12.57;59.74;101934.38;6341557;22;45125;-82
2022/03/15 04:22:41;;;;;;;;;8.25;8.25;;;;;12.59;60.18;101935.28;6313320;22;45150;-83
2022/03/15 04:25:07;;;;;;;;;13.75;11.00;;;;;12.49;60.20;101917.59;6313846;22;45572;-83
2022/03/15 04:27:33;;;;;;;;;10.25;9.00;;;;;12.59;60.46;101935.28;6313287;22;47060;-81
2022/03/15 04:29:59;;;;;;;;;13.00;10.25;;;;;12.55;60.72;101923.78;6313649;22;45291;-82
2022/03/15 04:32:24;;;;;;;;;10.00;10.00;;;;;12.54;60.61;101919.38;6313514;22;45348;-82
2022/03/15 04:34:51;;;;;;;;;11.25;10.75;;;;;12.65;60.88;101931.78;6313544;22;45468;-82
2022/03/15 04:37:18;;;;;;;;;10.00;10.00;;;;;12.58;61.13;101918.53;6341344;22;46228;-82
2022/03/15 04:39:44;;;;;;;;;11.00;10.25;;;;;12.49;60.93;101902.63;6313060;22;45230;-81
2022/03/15 04:42:10;;;;;;;;;10.00;8.75;;;;;12.53;61.33;101917.59;6313053;22;45233;-82
2022/03/15 04:44:35;;;;;;;;;10.50;9.75;;;;;12.50;61.94;101917.59;6313388;22;45390;-82
2022/03/15 04:47:02;;;;;;;;;11.00;7.50;;;;;12.43;61.67;101901.69;6313275;22;47895;-81
2022/03/15 04:49:27;;;;;;;;;9.75;8.00;;;;;12.45;62.21;101910.50;6341315;22;45187;-82
2022/03/15 04:51:56;;;;;;;;;11.25;10.00;;;;;12.50;62.59;101916.72;6313722;22;45204;-81
2022/03/15 04:54:22;;;;;;;;;11.00;9.00;;;;;12.41;62.37;101903.44;6313698;22;45401;-82
2022/03/15 04:56:47;;;;;;;;;11.50;10.00;;;;;12.41;62.65;101909.59;6342767;22;46112;-82
2022/03/15 04:59:13;;;;;;;;;12.25;12.00;;;;;12.39;62.80;101898.13;6343457;22;45334;-82
2022/03/15 05:01:38;;;;;;;;;7.75;7.50;;;;;12.44;62.93;101904.34;6343791;22;45184;-82
2022/03/15 05:04:04;;;;;;;;;10.50;10.25;;;;;12.46;63.19;101905.25;6343931;22;45518;-82
2022/03/15 05:06:30;;;;;;;;;13.00;10.50;;;;;12.53;63.00;101917.59;6314810;22;48075;-80
2022/03/15 05:08:55;;;;;;;;;13.75;12.00;;;;;12.56;63.08;101912.38;6315587;22;45264;-82
2022/03/15 05:11:21;;;;;;;;;13.00;12.00;;;;;12.51;63.13;101902.63;6315862;22;45224;-82
2022/03/15 05:13:48;;;;;;;;;9.75;8.75;;;;;12.54;63.32;101908.81;6344214;22;45398;-82
2022/03/15 05:16:17;;;;;;;;;11.25;9.75;;;;;12.60;63.49;101913.25;6315993;22;46823;-81
2022/03/15 05:18:45;;;;;;;;;12.00;11.00;;;;;12.55;63.60;101910.56;6343772;22;45359;-82
2022/03/15 05:21:16;;;;;;;;;13.50;12.50;;;;;12.52;63.35;101907.03;6344512;22;45166;-82
2022/03/15 05:23:49;;;;;;;;;10.50;9.50;;;;;12.50;63.95;101911.41;6343335;22;45499;-81
2022/03/15 05:26:15;;;;;;;;;11.25;10.50;;;;;12.45;63.78;101892.00;6343641;22;46191;-81
2022/03/15 05:28:42;;;;;;;;;12.75;12.00;;;;;12.60;63.99;101912.38;6314990;22;45314;-82
2022/03/15 05:31:09;;;;;;;;;13.50;11.75;;;;;12.60;63.94;101915.03;6343276;22;45360;-82
2022/03/15 05:33:37;;;;;;;;;15.50;11.75;;;;;12.52;63.67;101902.63;6343280;22;45434;-82
2022/03/15 05:36:04;;;;;;;;;12.50;11.50;;;;;12.51;63.70;101898.25;6313909;22;47115;-82
2022/03/15 05:38:29;;;;;;;;;14.50;14.50;;;;;12.57;63.93;101908.84;6315089;22;45412;-83
2022/03/15 05:40:56;;;;;;;;;12.50;12.50;;;;;12.56;64.20;101903.53;6342919;22;45362;-82
2022/03/15 05:43:22;;;;;;;;;12.75;12.50;;;;;12.66;64.11;101913.28;6342609;22;45356;-82
2022/03/15 05:45:48;;;;;;;;;15.00;13.00;;;;;12.60;64.03;101897.41;6314079;22;47254;-82
2022/03/15 05:48:13;;;;;;;;;14.00;13.00;;;;;12.64;64.11;101900.94;6313652;22;45291;-82
2022/03/15 05:50:39;;;;;;;;;9.00;9.00;;;;;12.72;64.21;101918.63;6341156;22;45282;-82
2022/03/15 05:53:05;;;;;;;;;16.75;14.25;;;;;12.66;64.31;101908.00;6313581;22;45205;-82
2022/03/15 05:55:35;;;;;;;;;15.00;14.00;;;;;12.70;64.32;101906.28;6313851;22;47128;-81
2022/03/15 05:58:01;;;;;;;;;14.00;12.75;;;;;12.69;64.58;101908.03;6341932;22;45365;-82
2022/03/15 06:00:28;;;;;;;;;15.50;12.75;;;;;12.74;64.68;101914.22;6314752;22;45297;-80
2022/03/15 06:02:57;;;;;;;;;13.75;12.00;;;;;12.76;64.80;101919.53;6316041;22;45477;-82
2022/03/15 06:05:22;;;;;;;;;16.00;14.50;;;;;12.65;64.65;101908.91;6312538;22;47646;-82
2022/03/15 06:07:56;;;;;;;;;15.50;13.75;;;;;12.73;64.93;101916.88;6312887;22;45183;-82
2022/03/15 06:10:23;;;;;;;;;14.25;13.50;;;;;12.71;64.97;101908.03;6312824;22;45217;-82
2022/03/15 06:12:52;;;;;;;;;15.00;14.00;;;;;12.73;64.84;101915.09;6312978;22;45207;-82
2022/03/15 06:15:18;;;;;;;;;18.00;16.00;;;;;12.76;65.02;101915.13;6312257;22;47118;-82
2022/03/15 06:17:48;;;;;;;;;14.50;13.50;;;;;12.73;64.74;101909.81;6312383;22;45214;-82
2022/03/15 06:20:16;;;;;;;;;13.25;11.50;;;;;12.83;64.92;101934.56;6312806;22;45194;-82
2022/03/15 06:22:42;;;;;;;;;17.50;14.50;;;;;12.80;65.32;101922.22;6312753;22;45403;-82
2022/03/15 06:25:11;;;;;;;;;15.00;13.50;;;;;12.77;64.70;101910.72;6340940;22;45373;-82
2022/03/15 06:27:39;;;;;;;;;19.50;18.00;;;;;12.89;65.19;101920.50;6340499;22;45215;-82
2022/03/15 06:30:06;;;;;;;;;15.75;14.75;;;;;12.92;65.13;101917.88;6341545;22;45340;-82
2022/03/15 06:32:33;;;;;;;;;18.25;17.25;;;;;12.87;65.42;101911.66;6313592;22;45482;-82
2022/03/15 06:35:07;;;;;;;;;22.75;19.00;;;;;12.84;65.64;101906.38;6341408;22;46096;-84
2022/03/15 09:19:42;;;;;;;;;28.50;26.75;;;;;13.05;68.11;101943.50;6340683;22;45254;-76
2022/03/15 09:22:08;;;;;;;;;28.75;25.50;;;;;13.08;68.28;101938.22;6338659;22;47962;-75
2022/03/15 09:46:32;;;;;;;;;31.00;29.00;;;;;13.37;68.53;101905.75;6063258;23;45470;-86
2022/03/15 11:12:17;;;;;;;;;49.50;43.00;;;;;13.37;68.92;101877.53;6247036;22;45809;-81
2022/03/15 11:14:48;;;;;;;;;41.50;36.00;;;;;13.42;68.75;101869.63;6239331;22;45404;-80
2022/03/15 11:17:18;;;;;;;;;35.50;35.00;;;;;13.52;68.86;101875.81;6242566;22;45433;-82
2022/03/15 11:19:52;;;;;;;;;59.25;48.25;;;;;13.51;68.78;101853.75;6217139;22;45487;-83
2022/03/15 11:22:24;;;;;;;;;58.75;48.25;;;;;13.60;68.82;101861.72;6243090;22;46362;-80
2022/03/15 11:25:40;;;;;;;;;;;;;;;;;;;;;
2022/03/15 11:28:15;;;;;;;;;46.50;38.25;;;;;13.72;68.09;101860.00;6241440;22;68882;-81
2022/03/15 11:31:58;;;;;;;;;;;;;;;;;;;;;
2022/03/15 11:41:42;;;;;;;;;45.00;37.00;;;;;14.04;67.92;101852.06;6021151;23;45480;-83
2022/03/15 11:51:28;;;;;;;;;;;;;;;;;;;;;
2022/03/15 11:54:45;;;;;;;;;;;;;;;;;;;;;
2022/03/15 12:01:28;;;;;;;;;;;;;;;;;;;;;
2022/03/15 12:08:42;;;;;;;;;;;;;;;;;;;;;
2022/03/15 12:12:06;;;;;;;;;;;;;;;;;;;;;
2022/03/15 12:18:50;;;;;;;;;28.75;27.75;;;;;14.60;66.16;101821.97;5864810;24;45479;-82
2022/03/15 12:32:20;;;;;;;;;31.75;28.75;;;;;14.85;65.60;101812.16;5759563;24;45501;-81
2022/03/15 12:34:55;;;;;;;;;29.00;27.25;;;;;14.80;64.75;101811.28;5774800;24;45281;-82
2022/03/15 12:37:49;;;;;;;;;29.00;28.00;;;;;14.84;64.92;101813.06;5893712;24;45540;-82
2022/03/15 12:40:35;;;;;;;;;;;;;;;;;;;;;
2022/03/15 12:47:01;;;;;;;;;;;;;;;;;;;;;
2022/03/15 12:49:50;;;;;;;;;42.50;37.25;;;;;14.89;64.45;101794.47;6262255;22;70819;-80
2022/03/15 12:53:01;;;;;;;;;25.25;22.50;;;;;14.90;63.83;101798.88;6256771;22;45371;-81
2022/03/15 12:55:38;;;;;;;;;28.25;24.00;;;;;14.90;64.26;101786.50;6248300;22;45491;-81
2022/03/15 12:58:36;;;;;;;;;;;;;;;;;;;;;
2022/03/15 13:01:08;;;;;;;;;28.00;25.50;;;;;14.83;63.64;101771.50;6274877;22;71376;-82
2022/03/15 13:03:49;;;;;;;;;;;;;;;;;;;;;
2022/03/15 13:07:26;;;;;;;;;;;;;;;;;;;;;
2022/03/15 13:10:01;;;;;;;;;24.75;23.25;;;;;14.88;63.41;101763.53;6244883;22;45448;-83
2022/03/15 13:16:36;;;;;;;;;24.00;21.50;;;;;15.04;63.20;101772.28;6275916;22;46245;-82
2022/03/15 13:19:47;;;;;;;;;19.75;18.75;;;;;14.98;62.87;101757.31;6259380;22;45250;-82
2022/03/15 13:22:38;;;;;;;;;;;;;;;;;;;;;
2022/03/15 13:26:07;;;;;;;;;;;;;;;;;;;;;
2022/03/15 13:32:19;;;;;;;;;;;;;;;;;;;;;
2022/03/15 13:49:34;;;;;;;;;;;;;;;;;;;;;
2022/03/15 13:53:08;;;;;;;;;;;;;;;;;;;;;
2022/03/15 13:59:26;;;;;;;;;20.75;19.50;;;;;15.74;59.18;101702.78;5883592;24;45840;-81
2022/03/15 14:02:06;;;;;;;;;16.50;15.75;;;;;15.66;58.99;101701.94;5895418;23;45319;-81
2022/03/15 14:04:35;;;;;;;;;14.25;14.25;;;;;15.59;59.06;101706.44;6035067;23;45497;-83
2022/03/15 14:07:08;;;;;;;;;14.25;14.25;;;;;15.58;59.58;101698.47;6212222;22;46988;-81
2022/03/15 14:09:37;;;;;;;;;15.50;15.00;;;;;15.59;59.69;101694.97;6247983;22;45328;-80
2022/03/15 14:12:22;;;;;;;;;14.00;13.25;;;;;15.72;59.59;101706.38;6248477;22;45502;-81
2022/03/15 14:15:29;;;;;;;;;;;;;;;;;;;;;
2022/03/15 14:18:08;;;;;;;;;19.50;17.00;;;;;15.70;59.35;101697.53;6274009;22;75486;-83
2022/03/15 14:20:55;;;;;;;;;16.50;15.25;;;;;15.81;59.76;101716.91;6275644;22;45283;-85
2022/03/15 14:23:34;;;;;;;;;14.75;12.25;;;;;15.83;59.27;101720.44;6248329;22;45546;-84
2022/03/15 14:26:07;;;;;;;;;12.75;11.25;;;;;15.79;59.69;101708.94;6248950;22;45357;-77
2022/03/15 14:32:36;;;;;;;;;;;;;;;;;;;;;
2022/03/15 14:35:07;;;;;;;;;14.00;14.00;;;;;15.83;59.40;101715.13;6263801;22;68635;-79
2022/03/15 14:37:35;;;;;;;;;19.75;16.25;;;;;15.76;59.26;101722.25;6247424;22;45451;-79
2022/03/15 14:40:12;;;;;;;;;19.25;18.50;;;;;15.71;59.70;101712.56;6274902;22;45209;-79
2022/03/15 14:42:43;;;;;;;;;16.75;15.25;;;;;15.71;59.52;101700.16;6275297;22;45350;-79
2022/03/15 14:46:28;;;;;;;;;17.00;15.00;;;;;15.73;59.15;101698.38;6247671;22;45334;-81
2022/03/15 14:48:35;;;;;;;;;20.00;16.00;;;;;15.71;59.68;101699.28;6262431;22;45558;-79
2022/03/15 14:51:16;;;;;;;;;15.25;14.75;;;;;15.75;59.38;101698.38;6248895;22;46639;-81
2022/03/15 14:53:45;;;;;;;;;17.75;17.25;;;;;15.67;59.09;101690.44;6277535;22;45502;-79
2022/03/15 14:56:11;;;;;;;;;13.50;13.50;;;;;15.66;59.16;101681.63;6275291;22;45427;-80
2022/03/15 14:58:37;;;;;;;;;20.50;17.75;;;;;15.64;59.41;101690.50;6276070;22;45661;-80
2022/03/15 15:01:03;;;;;;;;;16.00;15.00;;;;;15.63;59.22;101705.50;6248418;22;46494;-80
2022/03/15 15:04:13;;;;;;;;;19.00;17.50;;;;;15.52;59.58;101686.16;6248146;22;45454;-80
2022/03/15 15:06:40;;;;;;;;;19.50;17.25;;;;;15.55;59.73;101691.44;6247490;22;45428;-81
2022/03/15 15:09:16;;;;;;;;;21.25;20.50;;;;;15.52;59.88;101687.94;6274701;22;45244;-81
2022/03/15 15:15:00;;;;;;;;;26.00;23.75;;;;;15.39;60.23;101690.69;6241034;22;45439;-81
2022/03/15 15:21:02;;;;;;;;;6.00;5.75;;;;;15.15;60.67;101699.72;6244835;22;45581;-81
2022/03/15 15:23:41;;;;;;;;;33.00;29.25;;;;;15.11;60.68;101702.41;6248773;22;46819;-81
2022/03/15 15:26:12;;;;;;;;;24.50;23.50;;;;;15.06;61.07;101694.47;6249252;22;45565;-82
2022/03/15 15:28:59;;;;;;;;;29.00;26.75;;;;;14.99;61.34;101684.81;6248597;22;45316;-80
2022/03/15 15:31:49;;;;;;;;;29.50;26.25;;;;;15.08;61.57;101699.78;6249320;22;45465;-81
2022/03/15 15:34:31;;;;;;;;;25.00;22.00;;;;;15.05;61.58;101689.19;6274067;22;48013;-81
2022/03/15 15:37:18;;;;;;;;;;;;;;;;;;;;;
2022/03/15 15:40:17;;;;;;;;;;;;;;;;;;;;;
2022/03/15 15:42:43;;;;;;;;;32.75;27.50;;;;;15.11;61.67;101702.41;6262584;22;72996;-80
2022/03/15 15:45:14;;;;;;;;;23.25;23.00;;;;;15.01;61.83;101690.97;6248516;22;47073;-80
2022/03/15 15:47:40;;;;;;;;;28.50;25.25;;;;;15.07;61.67;101698.88;6276649;22;45403;-82
2022/03/15 15:50:08;;;;;;;;;31.00;27.00;;;;;15.03;62.13;101697.16;6277079;22;45564;-79
2022/03/15 15:52:34;;;;;;;;;28.50;28.00;;;;;15.02;62.33;101690.06;6274688;22;45318;-80
2022/03/15 15:54:59;;;;;;;;;23.50;22.50;;;;;15.08;62.01;101708.63;6277798;22;45654;-81
2022/03/15 15:57:27;;;;;;;;;31.75;28.75;;;;;15.09;61.94;101706.84;6277567;22;45268;-81
2022/03/15 15:59:58;;;;;;;;;28.25;25.00;;;;;15.10;61.99;101701.53;6248794;22;45751;-78
2022/03/15 16:02:26;;;;;;;;;30.00;30.00;;;;;15.06;62.04;101704.22;6275903;22;45352;-79
2022/03/15 16:04:57;;;;;;;;;23.75;23.00;;;;;15.14;62.02;101720.97;6274925;22;47961;-84
2022/03/15 16:07:31;;;;;;;;;27.25;24.25;;;;;15.06;61.78;101713.06;6276002;22;45356;-84
2022/03/15 16:09:57;;;;;;;;;28.00;26.75;;;;;15.03;62.24;101715.72;6276819;22;45366;-80
2022/03/15 16:12:33;;;;;;;;;24.50;23.00;;;;;14.98;61.95;101715.75;6246667;22;45728;-80
2022/03/15 16:15:28;;;;;;;;;27.00;24.75;;;;;15.02;61.96;101718.38;6246492;22;47268;-80
2022/03/15 16:18:04;;;;;;;;;28.25;22.25;;;;;14.98;62.05;101712.22;6261145;22;45293;-80
2022/03/15 16:27:12;;;;;;;;;18.00;17.00;;;;;14.92;62.03;101717.56;6248167;22;45621;-80
2022/03/15 16:33:26;;;;;;;;;24.50;20.50;;;;;14.88;62.47;101716.69;6128857;22;45774;-79
2022/03/15 16:35:55;;;;;;;;;17.50;17.25;;;;;14.89;62.64;101721.13;6274344;22;45342;-83
2022/03/15 16:38:20;;;;;;;;;23.00;20.50;;;;;14.78;62.34;101707.03;6249543;22;46845;-80
2022/03/15 21:24:38;;;;;;;;;17.25;16.00;;;;;13.26;66.73;101747.06;6304677;22;47166;-79
2022/03/15 21:27:05;;;;;;;;;20.00;17.25;;;;;13.21;66.93;101754.06;6276505;22;45499;-78
2022/03/15 21:29:30;;;;;;;;;21.25;20.25;;;;;13.26;67.00;101760.28;6303012;22;47005;-78
2022/03/15 21:31:58;;;;;;;;;20.25;20.25;;;;;13.33;66.83;101769.09;6275634;22;45379;-78
2022/03/15 21:34:24;;;;;;;;;20.50;18.00;;;;;13.26;66.70;101762.91;6276315;22;45748;-77
2022/03/15 21:36:52;;;;;;;;;19.25;17.75;;;;;13.30;66.96;101763.78;6302599;22;45863;-77
2022/03/15 21:39:20;;;;;;;;;22.75;19.50;;;;;13.28;66.87;101769.06;6304352;22;46295;-77
2022/03/15 21:41:46;;;;;;;;;21.50;18.75;;;;;13.26;66.79;101765.56;6276646;22;46010;-78
2022/03/15 21:44:15;;;;;;;;;20.00;19.00;;;;;13.24;67.08;101762.00;6305615;22;45390;-78
2022/03/15 21:46:42;;;;;;;;;29.25;24.00;;;;;13.21;66.93;101759.34;6280165;22;45659;-78
2022/03/15 21:49:11;;;;;;;;;20.25;20.25;;;;;13.13;66.83;101743.47;6307914;22;46182;-78
2022/03/15 21:51:40;;;;;;;;;20.25;18.25;;;;;13.15;66.77;101751.38;6308895;22;45787;-77
2022/03/15 21:54:10;;;;;;;;;21.50;20.75;;;;;13.15;66.90;101756.66;6281402;22;45547;-77
2022/03/15 21:56:39;;;;;;;;;22.25;21.00;;;;;13.17;66.90;101758.44;6281431;22;45386;-77
2022/03/15 21:59:08;;;;;;;;;21.75;17.75;;;;;13.14;67.04;101763.72;6280807;22;47158;-78
2022/03/15 22:01:34;;;;;;;;;23.75;19.50;;;;;13.11;66.91;101757.56;6308708;22;45409;-78
2022/03/15 22:04:00;;;;;;;;;20.00;18.75;;;;;13.13;67.17;101759.31;6304398;22;45426;-78
2022/03/15 22:06:26;;;;;;;;;23.50;20.00;;;;;13.07;67.16;101750.50;6304688;22;45301;-77
2022/03/15 22:08:51;;;;;;;;;18.75;17.50;;;;;13.10;67.00;101758.44;6305509;22;47004;-77
2022/03/15 22:11:22;;;;;;;;;20.50;19.25;;;;;13.10;67.16;101769.91;6305348;22;45682;-77
2022/03/15 22:13:47;;;;;;;;;21.25;18.00;;;;;13.04;67.24;101754.00;6307430;22;45353;-77
2022/03/15 22:16:13;;;;;;;;;25.00;22.00;;;;;13.12;67.13;101772.53;6306071;22;45512;-78
2022/03/15 22:18:42;;;;;;;;;24.25;18.50;;;;;13.11;67.10;101776.94;6306980;22;46097;-77
2022/03/15 22:21:11;;;;;;;;;18.25;15.75;;;;;13.09;67.19;101777.81;6306248;22;45418;-77
2022/03/15 22:23:39;;;;;;;;;23.25;20.50;;;;;13.03;66.78;101769.00;6278930;22;45483;-77
2022/03/15 22:26:10;;;;;;;;;19.25;18.00;;;;;13.08;66.88;101779.59;6301909;22;45488;-78
2022/03/15 22:28:36;;;;;;;;;21.50;18.50;;;;;13.00;67.13;101762.81;6306801;22;45558;-78
2022/03/15 23:19:35;;;;;;;;;20.25;17.50;;;;;12.90;67.36;101787.47;6305988;22;45645;-79
2022/03/15 23:24:47;;;;;;;;;16.75;15.25;;;;;12.84;67.22;101768.94;6306794;22;45273;-80
2022/03/15 23:27:16;;;;;;;;;13.75;12.25;;;;;12.87;67.23;101774.22;6308580;22;45648;-81
2022/03/15 23:29:43;;;;;;;;;16.50;16.00;;;;;12.89;67.45;101772.50;6307784;22;45269;-81
2022/03/15 23:32:11;;;;;;;;;17.00;16.25;;;;;12.92;67.61;101776.00;6280359;22;47191;-81
2022/03/15 23:34:36;;;;;;;;;16.50;15.75;;;;;12.96;67.52;101777.81;6307807;22;45227;-81